sensor_id;sensor_type;location;lat;lon;timestamp;P1;durP1;ratioP1;P2;durP2;ratioP2
76552;SDS011;65395;53.168;18.156;2023-03-23T00:01:07;29.50;;;17.00;;
76552;SDS011;65395;53.168;18.156;2023-03-23T00:03:36;28.50;;;15.50;;
76552;SDS011;65395;53.168;18.156;2023-03-23T00:06:03;31.40;;;17.10;;
76552;SDS011;65395;53.168;18.156;2023-03-23T00:08:32;25.90;;;14.40;;
76552;SDS011;65395;53.168;18.156;2023-03-23T00:11:04;24.60;;;14.30;;
76552;SDS011;65395;53.168;18.156;2023-03-23T00:13:31;27.50;;;14.90;;
76552;SDS011;65395;53.168;18.156;2023-03-23T00:15:59;33.20;;;16.90;;
76552;SDS011;65395;53.168;18.156;2023-03-23T00:18:25;28.40;;;16.70;;
76552;SDS011;65395;53.168;18.156;2023-03-23T00:20:53;26.90;;;15.60;;
76552;SDS011;65395;53.168;18.156;2023-03-23T00:23:23;24.50;;;14.10;;
76552;SDS011;65395;53.168;18.156;2023-03-23T00:25:52;23.30;;;13.90;;
76552;SDS011;65395;53.168;18.156;2023-03-23T00:28:25;23.60;;;14.30;;
76552;SDS011;65395;53.168;18.156;2023-03-23T00:31:01;24.50;;;14.00;;
76552;SDS011;65395;53.168;18.156;2023-03-23T00:33:30;22.50;;;13.50;;
76552;SDS011;65395;53.168;18.156;2023-03-23T00:36:04;24.50;;;13.40;;
76552;SDS011;65395;53.168;18.156;2023-03-23T00:38:31;24.60;;;13.30;;
76552;SDS011;65395;53.168;18.156;2023-03-23T00:40:58;21.10;;;13.80;;
76552;SDS011;65395;53.168;18.156;2023-03-23T00:43:30;20.80;;;12.90;;
76552;SDS011;65395;53.168;18.156;2023-03-23T00:45:58;22.10;;;12.90;;
76552;SDS011;65395;53.168;18.156;2023-03-23T00:48:28;23.60;;;12.20;;
76552;SDS011;65395;53.168;18.156;2023-03-23T00:50:55;21.60;;;12.90;;
76552;SDS011;65395;53.168;18.156;2023-03-23T00:53:22;23.60;;;13.70;;
76552;SDS011;65395;53.168;18.156;2023-03-23T00:55:49;21.10;;;12.90;;
76552;SDS011;65395;53.168;18.156;2023-03-23T00:58:16;20.10;;;12.30;;
76552;SDS011;65395;53.168;18.156;2023-03-23T01:00:42;24.10;;;13.00;;
76552;SDS011;65395;53.168;18.156;2023-03-23T01:03:09;19.90;;;12.20;;
76552;SDS011;65395;53.168;18.156;2023-03-23T01:05:44;20.10;;;12.30;;
76552;SDS011;65395;53.168;18.156;2023-03-23T01:08:14;19.70;;;12.00;;
76552;SDS011;65395;53.168;18.156;2023-03-23T01:10:42;18.60;;;12.40;;
76552;SDS011;65395;53.168;18.156;2023-03-23T01:13:10;19.80;;;11.30;;
76552;SDS011;65395;53.168;18.156;2023-03-23T01:15:38;23.00;;;12.30;;
76552;SDS011;65395;53.168;18.156;2023-03-23T01:18:05;22.40;;;13.00;;
76552;SDS011;65395;53.168;18.156;2023-03-23T01:20:32;19.60;;;12.20;;
76552;SDS011;65395;53.168;18.156;2023-03-23T01:23:00;19.60;;;12.00;;
76552;SDS011;65395;53.168;18.156;2023-03-23T01:25:28;23.00;;;12.20;;
76552;SDS011;65395;53.168;18.156;2023-03-23T01:27:58;20.50;;;11.90;;
76552;SDS011;65395;53.168;18.156;2023-03-23T01:30:25;20.80;;;11.50;;
76552;SDS011;65395;53.168;18.156;2023-03-23T01:32:53;22.60;;;12.50;;
76552;SDS011;65395;53.168;18.156;2023-03-23T01:35:22;18.90;;;10.80;;
76552;SDS011;65395;53.168;18.156;2023-03-23T01:37:48;18.70;;;11.10;;
76552;SDS011;65395;53.168;18.156;2023-03-23T01:40:15;24.40;;;11.80;;
76552;SDS011;65395;53.168;18.156;2023-03-23T01:42:43;22.60;;;11.90;;
76552;SDS011;65395;53.168;18.156;2023-03-23T01:45:20;21.50;;;12.00;;
76552;SDS011;65395;53.168;18.156;2023-03-23T01:47:54;19.30;;;11.30;;
76552;SDS011;65395;53.168;18.156;2023-03-23T01:50:30;19.00;;;11.30;;
76552;SDS011;65395;53.168;18.156;2023-03-23T01:53:03;18.80;;;11.30;;
76552;SDS011;65395;53.168;18.156;2023-03-23T01:55:35;21.60;;;10.80;;
76552;SDS011;65395;53.168;18.156;2023-03-23T01:58:05;15.90;;;9.80;;
76552;SDS011;65395;53.168;18.156;2023-03-23T02:00:34;15.60;;;9.90;;
76552;SDS011;65395;53.168;18.156;2023-03-23T02:03:01;18.60;;;10.70;;
76552;SDS011;65395;53.168;18.156;2023-03-23T02:05:32;18.90;;;10.90;;
76552;SDS011;65395;53.168;18.156;2023-03-23T02:08:09;16.60;;;9.60;;
76552;SDS011;65395;53.168;18.156;2023-03-23T02:10:37;17.70;;;11.10;;
76552;SDS011;65395;53.168;18.156;2023-03-23T02:13:05;20.10;;;11.40;;
76552;SDS011;65395;53.168;18.156;2023-03-23T02:15:37;19.70;;;11.70;;
76552;SDS011;65395;53.168;18.156;2023-03-23T02:18:16;19.20;;;10.70;;
76552;SDS011;65395;53.168;18.156;2023-03-23T02:21:00;20.20;;;10.80;;
76552;SDS011;65395;53.168;18.156;2023-03-23T02:23:46;18.90;;;10.80;;
76552;SDS011;65395;53.168;18.156;2023-03-23T02:26:47;18.50;;;10.60;;
76552;SDS011;65395;53.168;18.156;2023-03-23T02:32:23;17.40;;;10.30;;
76552;SDS011;65395;53.168;18.156;2023-03-23T02:35:03;18.20;;;11.70;;
76552;SDS011;65395;53.168;18.156;2023-03-23T02:37:46;18.90;;;12.60;;
76552;SDS011;65395;53.168;18.156;2023-03-23T02:40:20;22.50;;;11.90;;
76552;SDS011;65395;53.168;18.156;2023-03-23T02:42:53;20.00;;;10.90;;
76552;SDS011;65395;53.168;18.156;2023-03-23T02:45:23;20.90;;;11.50;;
76552;SDS011;65395;53.168;18.156;2023-03-23T02:47:53;22.80;;;13.00;;
76552;SDS011;65395;53.168;18.156;2023-03-23T02:50:22;21.10;;;12.30;;
76552;SDS011;65395;53.168;18.156;2023-03-23T02:52:52;20.90;;;11.60;;
76552;SDS011;65395;53.168;18.156;2023-03-23T02:55:22;18.20;;;10.70;;
76552;SDS011;65395;53.168;18.156;2023-03-23T02:57:51;15.90;;;10.10;;
76552;SDS011;65395;53.168;18.156;2023-03-23T03:00:19;23.50;;;11.90;;
76552;SDS011;65395;53.168;18.156;2023-03-23T03:02:48;20.60;;;12.20;;
76552;SDS011;65395;53.168;18.156;2023-03-23T03:08:07;20.20;;;11.50;;
76552;SDS011;65395;53.168;18.156;2023-03-23T03:10:54;26.30;;;14.10;;
76552;SDS011;65395;53.168;18.156;2023-03-23T03:16:18;22.40;;;13.00;;
76552;SDS011;65395;53.168;18.156;2023-03-23T03:18:59;21.20;;;11.00;;
76552;SDS011;65395;53.168;18.156;2023-03-23T03:21:31;21.10;;;11.60;;
76552;SDS011;65395;53.168;18.156;2023-03-23T03:24:04;21.90;;;12.80;;
76552;SDS011;65395;53.168;18.156;2023-03-23T03:26:37;25.50;;;13.50;;
76552;SDS011;65395;53.168;18.156;2023-03-23T03:29:21;17.00;;;10.10;;
76552;SDS011;65395;53.168;18.156;2023-03-23T03:31:51;18.60;;;11.30;;
76552;SDS011;65395;53.168;18.156;2023-03-23T03:34:22;18.80;;;10.60;;
76552;SDS011;65395;53.168;18.156;2023-03-23T03:36:51;27.20;;;15.10;;
76552;SDS011;65395;53.168;18.156;2023-03-23T03:39:21;21.60;;;12.50;;
76552;SDS011;65395;53.168;18.156;2023-03-23T03:41:48;23.20;;;13.30;;
76552;SDS011;65395;53.168;18.156;2023-03-23T03:44:15;19.10;;;11.00;;
76552;SDS011;65395;53.168;18.156;2023-03-23T03:46:42;21.10;;;11.20;;
76552;SDS011;65395;53.168;18.156;2023-03-23T03:49:10;22.10;;;11.70;;
76552;SDS011;65395;53.168;18.156;2023-03-23T03:51:39;17.90;;;11.00;;
76552;SDS011;65395;53.168;18.156;2023-03-23T03:54:08;21.60;;;11.70;;
76552;SDS011;65395;53.168;18.156;2023-03-23T03:56:34;27.80;;;13.20;;
76552;SDS011;65395;53.168;18.156;2023-03-23T03:59:14;22.70;;;12.00;;
76552;SDS011;65395;53.168;18.156;2023-03-23T04:02:01;22.40;;;12.30;;
76552;SDS011;65395;53.168;18.156;2023-03-23T04:04:29;23.50;;;12.40;;
76552;SDS011;65395;53.168;18.156;2023-03-23T04:06:55;24.80;;;13.70;;
76552;SDS011;65395;53.168;18.156;2023-03-23T04:09:23;25.10;;;13.10;;
76552;SDS011;65395;53.168;18.156;2023-03-23T04:11:53;25.80;;;12.90;;
76552;SDS011;65395;53.168;18.156;2023-03-23T04:14:30;24.10;;;13.60;;
76552;SDS011;65395;53.168;18.156;2023-03-23T04:16:57;21.40;;;12.40;;
76552;SDS011;65395;53.168;18.156;2023-03-23T04:19:25;20.80;;;12.10;;
76552;SDS011;65395;53.168;18.156;2023-03-23T04:21:54;22.30;;;12.70;;
76552;SDS011;65395;53.168;18.156;2023-03-23T04:24:22;19.90;;;12.20;;
76552;SDS011;65395;53.168;18.156;2023-03-23T04:26:50;22.00;;;13.00;;
76552;SDS011;65395;53.168;18.156;2023-03-23T04:29:23;27.40;;;15.30;;
76552;SDS011;65395;53.168;18.156;2023-03-23T04:31:59;21.50;;;12.50;;
76552;SDS011;65395;53.168;18.156;2023-03-23T04:34:39;27.10;;;15.40;;
76552;SDS011;65395;53.168;18.156;2023-03-23T04:37:07;25.20;;;15.40;;
76552;SDS011;65395;53.168;18.156;2023-03-23T04:39:35;24.90;;;13.50;;
76552;SDS011;65395;53.168;18.156;2023-03-23T04:42:03;29.40;;;15.80;;
76552;SDS011;65395;53.168;18.156;2023-03-23T04:44:40;24.40;;;11.90;;
76552;SDS011;65395;53.168;18.156;2023-03-23T04:47:12;24.40;;;12.10;;
76552;SDS011;65395;53.168;18.156;2023-03-23T04:49:45;25.00;;;14.20;;
76552;SDS011;65395;53.168;18.156;2023-03-23T04:52:17;25.30;;;12.20;;
76552;SDS011;65395;53.168;18.156;2023-03-23T04:54:51;25.60;;;14.60;;
76552;SDS011;65395;53.168;18.156;2023-03-23T04:57:19;23.70;;;12.80;;
76552;SDS011;65395;53.168;18.156;2023-03-23T04:59:59;22.60;;;13.40;;
76552;SDS011;65395;53.168;18.156;2023-03-23T05:02:38;23.70;;;12.90;;
76552;SDS011;65395;53.168;18.156;2023-03-23T05:05:06;22.20;;;12.30;;
76552;SDS011;65395;53.168;18.156;2023-03-23T05:07:34;20.20;;;12.50;;
76552;SDS011;65395;53.168;18.156;2023-03-23T05:10:02;27.30;;;12.00;;
76552;SDS011;65395;53.168;18.156;2023-03-23T05:12:30;21.60;;;11.50;;
76552;SDS011;65395;53.168;18.156;2023-03-23T05:15:00;23.20;;;12.30;;
76552;SDS011;65395;53.168;18.156;2023-03-23T05:17:28;22.00;;;12.40;;
76552;SDS011;65395;53.168;18.156;2023-03-23T05:19:58;18.80;;;11.90;;
76552;SDS011;65395;53.168;18.156;2023-03-23T05:22:35;16.70;;;10.60;;
76552;SDS011;65395;53.168;18.156;2023-03-23T05:25:04;19.60;;;11.50;;
76552;SDS011;65395;53.168;18.156;2023-03-23T05:27:36;18.20;;;10.30;;
76552;SDS011;65395;53.168;18.156;2023-03-23T05:30:11;21.40;;;11.50;;
76552;SDS011;65395;53.168;18.156;2023-03-23T05:32:42;20.80;;;11.30;;
76552;SDS011;65395;53.168;18.156;2023-03-23T05:35:23;19.90;;;11.50;;
76552;SDS011;65395;53.168;18.156;2023-03-23T05:37:51;23.00;;;11.10;;
76552;SDS011;65395;53.168;18.156;2023-03-23T05:40:20;20.10;;;11.90;;
76552;SDS011;65395;53.168;18.156;2023-03-23T05:42:55;17.10;;;11.10;;
76552;SDS011;65395;53.168;18.156;2023-03-23T05:45:33;18.60;;;12.00;;
76552;SDS011;65395;53.168;18.156;2023-03-23T05:48:00;19.70;;;12.40;;
76552;SDS011;65395;53.168;18.156;2023-03-23T05:50:28;21.70;;;12.90;;
76552;SDS011;65395;53.168;18.156;2023-03-23T05:52:55;16.40;;;10.60;;
76552;SDS011;65395;53.168;18.156;2023-03-23T05:55:22;17.70;;;11.30;;
76552;SDS011;65395;53.168;18.156;2023-03-23T05:57:56;21.60;;;11.70;;
76552;SDS011;65395;53.168;18.156;2023-03-23T06:00:27;19.60;;;11.20;;
76552;SDS011;65395;53.168;18.156;2023-03-23T06:03:02;20.20;;;10.90;;
76552;SDS011;65395;53.168;18.156;2023-03-23T06:05:43;20.10;;;10.90;;
76552;SDS011;65395;53.168;18.156;2023-03-23T06:08:12;17.90;;;10.80;;
76552;SDS011;65395;53.168;18.156;2023-03-23T06:10:40;20.90;;;11.30;;
76552;SDS011;65395;53.168;18.156;2023-03-23T06:13:07;24.30;;;13.10;;
76552;SDS011;65395;53.168;18.156;2023-03-23T06:15:40;31.50;;;17.00;;
76552;SDS011;65395;53.168;18.156;2023-03-23T06:18:15;32.20;;;18.00;;
76552;SDS011;65395;53.168;18.156;2023-03-23T06:20:50;35.10;;;18.20;;
76552;SDS011;65395;53.168;18.156;2023-03-23T06:23:27;29.90;;;17.20;;
76552;SDS011;65395;53.168;18.156;2023-03-23T06:25:55;29.60;;;16.70;;
76552;SDS011;65395;53.168;18.156;2023-03-23T06:28:26;31.80;;;18.00;;
76552;SDS011;65395;53.168;18.156;2023-03-23T06:30:53;32.10;;;18.60;;
76552;SDS011;65395;53.168;18.156;2023-03-23T06:33:21;34.20;;;17.80;;
76552;SDS011;65395;53.168;18.156;2023-03-23T06:36:03;34.10;;;17.30;;
76552;SDS011;65395;53.168;18.156;2023-03-23T06:38:45;32.90;;;18.10;;
76552;SDS011;65395;53.168;18.156;2023-03-23T06:41:13;29.10;;;16.60;;
76552;SDS011;65395;53.168;18.156;2023-03-23T06:43:40;26.10;;;14.90;;
76552;SDS011;65395;53.168;18.156;2023-03-23T06:46:13;22.20;;;13.10;;
76552;SDS011;65395;53.168;18.156;2023-03-23T06:49:00;18.40;;;11.20;;
76552;SDS011;65395;53.168;18.156;2023-03-23T06:51:35;21.20;;;10.40;;
76552;SDS011;65395;53.168;18.156;2023-03-23T06:54:03;19.30;;;9.70;;
76552;SDS011;65395;53.168;18.156;2023-03-23T06:56:32;13.20;;;8.70;;
76552;SDS011;65395;53.168;18.156;2023-03-23T06:58:59;13.10;;;8.50;;
76552;SDS011;65395;53.168;18.156;2023-03-23T07:01:26;15.50;;;9.20;;
76552;SDS011;65395;53.168;18.156;2023-03-23T07:03:57;16.00;;;8.90;;
76552;SDS011;65395;53.168;18.156;2023-03-23T07:06:34;14.80;;;9.00;;
76552;SDS011;65395;53.168;18.156;2023-03-23T07:09:01;13.50;;;7.90;;
76552;SDS011;65395;53.168;18.156;2023-03-23T07:11:30;17.50;;;9.10;;
76552;SDS011;65395;53.168;18.156;2023-03-23T07:13:58;13.00;;;8.20;;
76552;SDS011;65395;53.168;18.156;2023-03-23T07:16:25;12.30;;;7.70;;
76552;SDS011;65395;53.168;18.156;2023-03-23T07:18:52;14.60;;;7.70;;
76552;SDS011;65395;53.168;18.156;2023-03-23T07:21:20;12.30;;;7.20;;
76552;SDS011;65395;53.168;18.156;2023-03-23T07:23:47;10.30;;;6.20;;
76552;SDS011;65395;53.168;18.156;2023-03-23T07:26:20;9.70;;;6.70;;
76552;SDS011;65395;53.168;18.156;2023-03-23T07:28:51;12.20;;;6.50;;
76552;SDS011;65395;53.168;18.156;2023-03-23T07:31:23;15.60;;;6.60;;
76552;SDS011;65395;53.168;18.156;2023-03-23T07:33:50;13.30;;;6.40;;
76552;SDS011;65395;53.168;18.156;2023-03-23T07:36:17;11.20;;;6.40;;
76552;SDS011;65395;53.168;18.156;2023-03-23T07:38:44;8.70;;;5.90;;
76552;SDS011;65395;53.168;18.156;2023-03-23T07:41:12;10.20;;;6.30;;
76552;SDS011;65395;53.168;18.156;2023-03-23T07:43:40;9.50;;;5.40;;
76552;SDS011;65395;53.168;18.156;2023-03-23T07:46:19;11.60;;;5.10;;
76552;SDS011;65395;53.168;18.156;2023-03-23T07:48:55;9.40;;;4.60;;
76552;SDS011;65395;53.168;18.156;2023-03-23T07:51:25;6.80;;;3.90;;
76552;SDS011;65395;53.168;18.156;2023-03-23T07:53:52;6.80;;;4.00;;
76552;SDS011;65395;53.168;18.156;2023-03-23T07:56:38;5.60;;;3.80;;
76552;SDS011;65395;53.168;18.156;2023-03-23T07:59:14;6.00;;;3.20;;
76552;SDS011;65395;53.168;18.156;2023-03-23T08:01:41;7.30;;;3.30;;
76552;SDS011;65395;53.168;18.156;2023-03-23T08:04:26;7.00;;;3.30;;
76552;SDS011;65395;53.168;18.156;2023-03-23T08:07:10;6.80;;;3.20;;
76552;SDS011;65395;53.168;18.156;2023-03-23T08:09:48;5.40;;;3.30;;
76552;SDS011;65395;53.168;18.156;2023-03-23T08:12:35;6.20;;;3.00;;
76552;SDS011;65395;53.168;18.156;2023-03-23T08:15:18;5.70;;;2.70;;
76552;SDS011;65395;53.168;18.156;2023-03-23T08:17:57;5.70;;;3.00;;
76552;SDS011;65395;53.168;18.156;2023-03-23T08:20:45;6.20;;;2.80;;
76552;SDS011;65395;53.168;18.156;2023-03-23T08:23:25;5.50;;;3.00;;
76552;SDS011;65395;53.168;18.156;2023-03-23T08:26:11;5.50;;;2.70;;
76552;SDS011;65395;53.168;18.156;2023-03-23T08:28:48;5.70;;;3.00;;
76552;SDS011;65395;53.168;18.156;2023-03-23T08:31:35;4.20;;;2.70;;
76552;SDS011;65395;53.168;18.156;2023-03-23T08:34:12;5.90;;;3.00;;
76552;SDS011;65395;53.168;18.156;2023-03-23T08:36:50;4.40;;;3.00;;
76552;SDS011;65395;53.168;18.156;2023-03-23T08:39:27;4.90;;;3.20;;
76552;SDS011;65395;53.168;18.156;2023-03-23T08:42:14;5.20;;;2.80;;
76552;SDS011;65395;53.168;18.156;2023-03-23T08:45:02;5.70;;;2.90;;
76552;SDS011;65395;53.168;18.156;2023-03-23T08:47:42;5.00;;;2.30;;
76552;SDS011;65395;53.168;18.156;2023-03-23T08:50:28;4.10;;;2.60;;
76552;SDS011;65395;53.168;18.156;2023-03-23T08:53:11;5.20;;;2.50;;
76552;SDS011;65395;53.168;18.156;2023-03-23T08:55:55;5.10;;;2.40;;
76552;SDS011;65395;53.168;18.156;2023-03-23T08:58:40;4.30;;;2.20;;
76552;SDS011;65395;53.168;18.156;2023-03-23T09:01:16;5.10;;;2.10;;
76552;SDS011;65395;53.168;18.156;2023-03-23T09:04:00;3.70;;;2.10;;
76552;SDS011;65395;53.168;18.156;2023-03-23T09:06:41;4.00;;;2.20;;
76552;SDS011;65395;53.168;18.156;2023-03-23T09:09:09;4.80;;;2.40;;
76552;SDS011;65395;53.168;18.156;2023-03-23T09:11:36;5.70;;;2.30;;
76552;SDS011;65395;53.168;18.156;2023-03-23T09:14:03;5.20;;;2.10;;
76552;SDS011;65395;53.168;18.156;2023-03-23T09:16:32;5.00;;;2.30;;
76552;SDS011;65395;53.168;18.156;2023-03-23T09:19:00;4.00;;;2.00;;
76552;SDS011;65395;53.168;18.156;2023-03-23T09:21:28;4.10;;;2.30;;
76552;SDS011;65395;53.168;18.156;2023-03-23T09:23:55;3.40;;;1.90;;
76552;SDS011;65395;53.168;18.156;2023-03-23T09:26:25;3.90;;;2.30;;
76552;SDS011;65395;53.168;18.156;2023-03-23T09:28:53;3.00;;;2.30;;
76552;SDS011;65395;53.168;18.156;2023-03-23T09:31:20;3.60;;;2.00;;
76552;SDS011;65395;53.168;18.156;2023-03-23T09:33:48;4.60;;;2.40;;
76552;SDS011;65395;53.168;18.156;2023-03-23T09:36:18;3.70;;;2.10;;
76552;SDS011;65395;53.168;18.156;2023-03-23T09:38:48;3.60;;;2.00;;
76552;SDS011;65395;53.168;18.156;2023-03-23T09:44:07;3.00;;;2.10;;
76552;SDS011;65395;53.168;18.156;2023-03-23T09:49:27;4.30;;;2.40;;
76552;SDS011;65395;53.168;18.156;2023-03-23T09:52:11;2.70;;;2.10;;
76552;SDS011;65395;53.168;18.156;2023-03-23T09:54:43;4.10;;;2.20;;
76552;SDS011;65395;53.168;18.156;2023-03-23T09:57:22;3.00;;;2.00;;
76552;SDS011;65395;53.168;18.156;2023-03-23T09:59:57;3.70;;;2.00;;
76552;SDS011;65395;53.168;18.156;2023-03-23T10:02:58;5.20;;;2.40;;
76552;SDS011;65395;53.168;18.156;2023-03-23T10:05:30;3.60;;;2.10;;
76552;SDS011;65395;53.168;18.156;2023-03-23T10:08:05;4.50;;;2.50;;
76552;SDS011;65395;53.168;18.156;2023-03-23T10:10:58;3.80;;;1.90;;
76552;SDS011;65395;53.168;18.156;2023-03-23T10:16:33;5.60;;;2.30;;
76552;SDS011;65395;53.168;18.156;2023-03-23T10:19:12;3.20;;;2.30;;
76552;SDS011;65395;53.168;18.156;2023-03-23T10:21:48;4.10;;;2.20;;
76552;SDS011;65395;53.168;18.156;2023-03-23T10:24:22;5.00;;;2.20;;
76552;SDS011;65395;53.168;18.156;2023-03-23T10:27:00;4.00;;;2.10;;
76552;SDS011;65395;53.168;18.156;2023-03-23T10:29:39;3.90;;;2.10;;
76552;SDS011;65395;53.168;18.156;2023-03-23T10:32:13;6.70;;;2.00;;
76552;SDS011;65395;53.168;18.156;2023-03-23T10:34:53;3.80;;;2.00;;
76552;SDS011;65395;53.168;18.156;2023-03-23T10:37:26;4.40;;;2.20;;
76552;SDS011;65395;53.168;18.156;2023-03-23T10:39:59;3.00;;;2.10;;
76552;SDS011;65395;53.168;18.156;2023-03-23T10:42:28;5.20;;;2.20;;
76552;SDS011;65395;53.168;18.156;2023-03-23T10:44:59;3.80;;;2.10;;
76552;SDS011;65395;53.168;18.156;2023-03-23T10:47:38;4.90;;;1.90;;
76552;SDS011;65395;53.168;18.156;2023-03-23T10:50:12;4.70;;;2.40;;
76552;SDS011;65395;53.168;18.156;2023-03-23T10:52:42;6.20;;;2.20;;
76552;SDS011;65395;53.168;18.156;2023-03-23T10:55:13;6.60;;;2.10;;
76552;SDS011;65395;53.168;18.156;2023-03-23T10:57:43;3.00;;;1.90;;
76552;SDS011;65395;53.168;18.156;2023-03-23T11:00:18;4.90;;;2.30;;
76552;SDS011;65395;53.168;18.156;2023-03-23T11:02:57;5.80;;;2.20;;
76552;SDS011;65395;53.168;18.156;2023-03-23T11:05:41;4.10;;;2.40;;
76552;SDS011;65395;53.168;18.156;2023-03-23T11:08:11;4.40;;;2.00;;
76552;SDS011;65395;53.168;18.156;2023-03-23T11:10:41;5.00;;;2.40;;
76552;SDS011;65395;53.168;18.156;2023-03-23T11:13:16;6.80;;;2.20;;
76552;SDS011;65395;53.168;18.156;2023-03-23T11:15:44;6.50;;;2.30;;
76552;SDS011;65395;53.168;18.156;2023-03-23T11:18:18;3.90;;;2.20;;
76552;SDS011;65395;53.168;18.156;2023-03-23T11:20:57;3.40;;;2.40;;
76552;SDS011;65395;53.168;18.156;2023-03-23T11:23:28;3.80;;;2.30;;
76552;SDS011;65395;53.168;18.156;2023-03-23T11:26:00;6.10;;;2.70;;
76552;SDS011;65395;53.168;18.156;2023-03-23T11:28:37;4.80;;;2.50;;
76552;SDS011;65395;53.168;18.156;2023-03-23T11:31:22;3.90;;;2.90;;
76552;SDS011;65395;53.168;18.156;2023-03-23T11:33:52;5.30;;;3.20;;
76552;SDS011;65395;53.168;18.156;2023-03-23T11:36:31;4.90;;;2.90;;
76552;SDS011;65395;53.168;18.156;2023-03-23T11:39:02;6.50;;;3.10;;
76552;SDS011;65395;53.168;18.156;2023-03-23T11:41:45;3.30;;;2.50;;
76552;SDS011;65395;53.168;18.156;2023-03-23T11:44:12;5.80;;;2.60;;
76552;SDS011;65395;53.168;18.156;2023-03-23T11:57:54;3.20;;;2.00;;
76552;SDS011;65395;53.168;18.156;2023-03-23T12:00:26;3.10;;;1.80;;
76552;SDS011;65395;53.168;18.156;2023-03-23T12:02:57;4.20;;;1.80;;
76552;SDS011;65395;53.168;18.156;2023-03-23T12:05:53;2.70;;;1.60;;
76552;SDS011;65395;53.168;18.156;2023-03-23T12:08:33;2.80;;;1.70;;
76552;SDS011;65395;53.168;18.156;2023-03-23T12:11:24;4.30;;;2.00;;
76552;SDS011;65395;53.168;18.156;2023-03-23T12:14:16;2.80;;;1.80;;
76552;SDS011;65395;53.168;18.156;2023-03-23T12:16:54;4.90;;;2.00;;
76552;SDS011;65395;53.168;18.156;2023-03-23T12:19:42;3.30;;;1.90;;
76552;SDS011;65395;53.168;18.156;2023-03-23T12:28:11;3.30;;;1.90;;
76552;SDS011;65395;53.168;18.156;2023-03-23T12:34:07;3.40;;;1.90;;
76552;SDS011;65395;53.168;18.156;2023-03-23T12:39:57;2.80;;;1.70;;
76552;SDS011;65395;53.168;18.156;2023-03-23T12:42:54;3.90;;;2.20;;
76552;SDS011;65395;53.168;18.156;2023-03-23T12:46:00;2.80;;;1.80;;
76552;SDS011;65395;53.168;18.156;2023-03-23T12:48:41;2.20;;;1.70;;
76552;SDS011;65395;53.168;18.156;2023-03-23T12:51:13;2.90;;;2.00;;
76552;SDS011;65395;53.168;18.156;2023-03-23T12:56:35;3.40;;;2.10;;
76552;SDS011;65395;53.168;18.156;2023-03-23T12:59:17;2.80;;;1.70;;
76552;SDS011;65395;53.168;18.156;2023-03-23T13:01:57;2.60;;;1.80;;
76552;SDS011;65395;53.168;18.156;2023-03-23T13:04:32;2.40;;;1.60;;
76552;SDS011;65395;53.168;18.156;2023-03-23T13:07:05;2.60;;;1.60;;
76552;SDS011;65395;53.168;18.156;2023-03-23T13:09:39;3.10;;;1.70;;
76552;SDS011;65395;53.168;18.156;2023-03-23T13:12:16;3.30;;;1.80;;
76552;SDS011;65395;53.168;18.156;2023-03-23T13:14:50;2.50;;;1.80;;
76552;SDS011;65395;53.168;18.156;2023-03-23T13:17:38;3.50;;;1.80;;
76552;SDS011;65395;53.168;18.156;2023-03-23T13:20:20;3.60;;;2.00;;
76552;SDS011;65395;53.168;18.156;2023-03-23T13:23:16;2.70;;;1.60;;
76552;SDS011;65395;53.168;18.156;2023-03-23T13:25:54;3.60;;;1.70;;
76552;SDS011;65395;53.168;18.156;2023-03-23T13:28:27;3.20;;;1.50;;
76552;SDS011;65395;53.168;18.156;2023-03-23T13:30:59;2.50;;;1.60;;
76552;SDS011;65395;53.168;18.156;2023-03-23T13:33:37;2.40;;;1.80;;
76552;SDS011;65395;53.168;18.156;2023-03-23T13:36:08;3.10;;;1.90;;
76552;SDS011;65395;53.168;18.156;2023-03-23T13:38:37;2.70;;;1.80;;
76552;SDS011;65395;53.168;18.156;2023-03-23T13:41:09;6.00;;;2.10;;
76552;SDS011;65395;53.168;18.156;2023-03-23T13:43:39;3.10;;;2.10;;
76552;SDS011;65395;53.168;18.156;2023-03-23T13:46:09;6.00;;;1.80;;
76552;SDS011;65395;53.168;18.156;2023-03-23T13:49:02;5.50;;;1.90;;
76552;SDS011;65395;53.168;18.156;2023-03-23T13:51:59;3.50;;;1.80;;
76552;SDS011;65395;53.168;18.156;2023-03-23T13:54:41;3.10;;;2.00;;
76552;SDS011;65395;53.168;18.156;2023-03-23T14:00:24;4.40;;;1.90;;
76552;SDS011;65395;53.168;18.156;2023-03-23T14:03:02;5.70;;;2.20;;
76552;SDS011;65395;53.168;18.156;2023-03-23T14:08:38;2.40;;;1.70;;
76552;SDS011;65395;53.168;18.156;2023-03-23T14:11:11;3.10;;;1.90;;
76552;SDS011;65395;53.168;18.156;2023-03-23T14:16:44;3.70;;;2.00;;
76552;SDS011;65395;53.168;18.156;2023-03-23T14:19:19;4.20;;;2.00;;
76552;SDS011;65395;53.168;18.156;2023-03-23T14:21:57;3.70;;;2.00;;
76552;SDS011;65395;53.168;18.156;2023-03-23T14:24:26;3.30;;;2.00;;
76552;SDS011;65395;53.168;18.156;2023-03-23T14:27:07;4.20;;;2.10;;
76552;SDS011;65395;53.168;18.156;2023-03-23T14:29:36;4.60;;;2.00;;
76552;SDS011;65395;53.168;18.156;2023-03-23T14:32:05;5.40;;;2.10;;
76552;SDS011;65395;53.168;18.156;2023-03-23T14:34:35;3.30;;;1.80;;
76552;SDS011;65395;53.168;18.156;2023-03-23T14:37:01;4.50;;;1.90;;
76552;SDS011;65395;53.168;18.156;2023-03-23T14:39:30;3.90;;;2.00;;
76552;SDS011;65395;53.168;18.156;2023-03-23T14:44:47;3.80;;;2.00;;
76552;SDS011;65395;53.168;18.156;2023-03-23T14:47:18;3.80;;;2.20;;
76552;SDS011;65395;53.168;18.156;2023-03-23T14:49:52;4.70;;;2.10;;
76552;SDS011;65395;53.168;18.156;2023-03-23T14:52:22;4.10;;;2.10;;
76552;SDS011;65395;53.168;18.156;2023-03-23T14:54:51;3.60;;;2.00;;
76552;SDS011;65395;53.168;18.156;2023-03-23T14:57:19;4.00;;;2.00;;
76552;SDS011;65395;53.168;18.156;2023-03-23T14:59:53;4.00;;;2.10;;
76552;SDS011;65395;53.168;18.156;2023-03-23T15:05:00;3.20;;;2.00;;
76552;SDS011;65395;53.168;18.156;2023-03-23T15:07:34;3.60;;;2.20;;
76552;SDS011;65395;53.168;18.156;2023-03-23T15:10:06;3.30;;;2.30;;
76552;SDS011;65395;53.168;18.156;2023-03-23T15:12:35;5.70;;;2.40;;
76552;SDS011;65395;53.168;18.156;2023-03-23T15:15:03;3.70;;;2.40;;
76552;SDS011;65395;53.168;18.156;2023-03-23T15:17:35;4.60;;;1.80;;
76552;SDS011;65395;53.168;18.156;2023-03-23T15:20:08;4.10;;;2.10;;
76552;SDS011;65395;53.168;18.156;2023-03-23T15:22:44;2.90;;;1.70;;
76552;SDS011;65395;53.168;18.156;2023-03-23T15:25:20;3.10;;;2.00;;
76552;SDS011;65395;53.168;18.156;2023-03-23T15:27:56;2.60;;;1.60;;
76552;SDS011;65395;53.168;18.156;2023-03-23T15:30:28;4.00;;;2.00;;
76552;SDS011;65395;53.168;18.156;2023-03-23T15:33:06;2.90;;;1.80;;
76552;SDS011;65395;53.168;18.156;2023-03-23T15:35:38;2.30;;;1.70;;
76552;SDS011;65395;53.168;18.156;2023-03-23T15:40:51;2.80;;;1.80;;
76552;SDS011;65395;53.168;18.156;2023-03-23T15:43:22;3.60;;;1.80;;
76552;SDS011;65395;53.168;18.156;2023-03-23T15:45:55;3.10;;;1.80;;
76552;SDS011;65395;53.168;18.156;2023-03-23T15:48:26;3.80;;;2.40;;
76552;SDS011;65395;53.168;18.156;2023-03-23T15:50:54;4.40;;;2.90;;
76552;SDS011;65395;53.168;18.156;2023-03-23T15:56:01;4.60;;;2.40;;
76552;SDS011;65395;53.168;18.156;2023-03-23T15:58:29;5.60;;;1.90;;
76552;SDS011;65395;53.168;18.156;2023-03-23T16:00:57;2.80;;;1.80;;